BIIS

Ísafjörður Airport

Ísafjörður, Iceland
METAR BIIS 161800Z 03012G22KT 9999 -RASN BKN015 OVC020 04/00 Q0984
Observed Flight Rules
Dec-16 @ 18:00 UTC (4 hours ago) Marginal Visual Flight Rules
Wind Visibility Clouds Conditions
30° at 12 knots
 Gusting to 22 knots
10,000+ meters
  • Broken at 1,500' AGL
  • Overcast at 2,000' AGL
  • Light Rain
  • Light Snow
Temperatures Readings
Current 4°C / 39°F
Dewpoint 0°C / 32°F
Humidity 75%
Altimeter 29.06" Hg
Pressure 984 hPa
Elevation 3
METAR BIIS 161800Z 03012G22KT 9999 -RASN BKN015 OVC020 04/00 Q0984
Observed Flight Rules
Dec-16 @ 18:00 UTC
(4 hours ago)
MVFR
Wind Visibility
30° at 12 knots
 Gusting to 22 knots
10,000+ meters
Clouds
  • Broken at 1,500' AGL
  • Overcast at 2,000' AGL
Conditions
  • Light Rain
  • Light Snow
Temperature Dewpoint
4°C / 39°F 0°C / 32°F
Humidity Altimeter Pressure
75% 29.06" Hg 984 hPa